Time;durP1;ratioP1;P1;durP2;ratioP2;P2;SDS_P1;SDS_P2;PMS_P1;PMS_P2;Temp;Humidity;BMP_temperature;BMP_pressure;BME280_temperature;BME280_humidity;BME280_pressure;Samples;Min_cycle;Max_cycle;Signal;HPM_P1;HPM_P2
2023/03/18 00:00:17;;;;;;;12.70;6.40;;;;;;;3.93;52.09;100997.70;102403;280;119827;-58
2023/03/18 00:03:21;;;;;;;10.20;5.80;;;;;;;3.92;52.08;100996.15;102374;280;107027;-57
2023/03/18 00:06:09;;;;;;;13.40;5.90;;;;;;;3.93;51.96;100997.64;102404;279;112980;-60
2023/03/18 00:08:52;;;;;;;14.00;7.40;;;;;;;3.96;51.80;100999.83;102549;279;92778;-60
2023/03/18 00:11:34;;;;;;;11.10;6.30;;;;;;;3.95;51.86;100996.00;102508;279;97443;-60
2023/03/18 00:14:16;;;;;;;13.00;6.50;;;;;;;3.90;51.97;100994.88;102537;279;121045;-61
2023/03/18 00:16:52;;;;;;;11.10;6.60;;;;;;;3.85;51.96;100993.86;102480;279;105612;-60
2023/03/18 00:19:28;;;;;;;13.70;6.00;;;;;;;3.85;51.81;100993.33;102494;279;114064;-60
2023/03/18 00:22:07;;;;;;;9.90;5.40;;;;;;;3.87;51.75;100992.33;102540;279;93624;-60
2023/03/18 00:24:45;;;;;;;13.70;5.90;;;;;;;3.86;51.77;100988.47;102537;279;97959;-59
2023/03/18 00:27:20;;;;;;;14.00;5.80;;;;;;;3.84;51.86;100986.88;102504;279;119476;-63
2023/03/18 00:29:57;;;;;;;10.80;5.60;;;;;;;3.80;51.94;100980.80;102545;279;105331;-58
2023/03/18 00:32:42;;;;;;;10.20;5.30;;;;;;;3.78;51.92;100983.64;102535;279;114629;-58
2023/03/18 00:35:21;;;;;;;;;;;;;;;3.78;52.02;100979.02;102518;279;93393;-62
2023/03/18 00:37:59;;;;;;;12.10;6.30;;;;;;;3.73;52.07;100975.22;102509;279;97341;-62
2023/03/18 00:40:53;;;;;;;12.00;6.00;;;;;;;3.71;51.94;100974.47;102536;279;120158;-63
2023/03/18 00:43:44;;;;;;;12.00;5.80;;;;;;;3.66;52.17;100967.10;102502;279;105204;-63
2023/03/18 00:46:24;;;;;;;9.10;5.50;;;;;;;3.62;52.09;100961.88;102450;279;114289;-60
2023/03/18 00:49:04;;;;;;;12.10;5.40;;;;;;;3.61;52.15;100956.26;102516;279;93947;-60
2023/03/18 00:51:41;;;;;;;10.10;5.60;;;;;;;3.57;52.22;100960.65;102492;279;97722;-55
2023/03/18 00:54:19;;;;;;;12.40;6.00;;;;;;;3.54;52.22;100957.90;102518;279;121440;-57
2023/03/18 00:56:56;;;;;;;12.20;6.30;;;;;;;3.52;52.21;100953.80;102508;279;104775;-60
2023/03/18 00:59:36;;;;;;;11.40;5.50;;;;;;;3.54;52.19;100953.81;102488;279;114342;-60
2023/03/18 01:02:16;;;;;;;9.00;4.90;;;;;;;3.54;52.06;100950.81;102374;279;92727;-57
2023/03/18 01:04:58;;;;;;;10.00;5.60;;;;;;;3.51;52.17;100948.42;102517;279;97044;-57
2023/03/18 01:07:32;;;;;;;8.50;4.80;;;;;;;3.50;52.06;100944.79;102532;267;121303;-59
2023/03/18 01:10:10;;;;;;;11.50;5.50;;;;;;;3.48;52.14;100940.29;102495;279;105608;-56
2023/03/18 01:12:50;;;;;;;9.10;5.10;;;;;;;3.45;52.20;100937.88;102498;279;114539;-54
2023/03/18 01:15:25;;;;;;;10.30;5.30;;;;;;;3.44;52.13;100931.52;102532;279;92726;-60
2023/03/18 01:18:05;;;;;;;10.50;5.80;;;;;;;3.42;52.20;100932.46;102524;279;96167;-60
2023/03/18 01:20:41;;;;;;;9.50;4.90;;;;;;;3.41;52.27;100932.53;102507;279;119711;-62
2023/03/18 01:23:21;;;;;;;10.10;5.10;;;;;;;3.39;52.22;100930.07;102504;279;106143;-62
2023/03/18 01:26:02;;;;;;;9.40;4.80;;;;;;;3.39;52.19;100926.14;102544;279;115070;-62
2023/03/18 01:28:42;;;;;;;10.90;4.90;;;;;;;3.36;52.21;100923.67;102494;279;93345;-61
2023/03/18 01:31:24;;;;;;;11.00;5.00;;;;;;;3.37;52.18;100919.55;102497;268;97647;-62
2023/03/18 01:34:02;;;;;;;8.00;4.20;;;;;;;3.36;52.15;100922.08;102503;279;121229;-62
2023/03/18 01:36:38;;;;;;;11.40;5.90;;;;;;;3.37;52.09;100926.80;102529;279;105619;-62
2023/03/18 01:39:17;;;;;;;10.30;5.10;;;;;;;3.38;52.15;100925.31;102491;279;112530;-62
2023/03/18 01:41:57;;;;;;;10.30;4.70;;;;;;;3.36;52.11;100922.13;102524;267;93708;-60
2023/03/18 01:44:37;;;;;;;9.10;4.50;;;;;;;3.32;52.23;100921.23;102516;279;98345;-60
2023/03/18 01:47:16;;;;;;;10.10;4.80;;;;;;;3.28;52.21;100917.67;102389;279;120310;-60
2023/03/18 01:49:52;;;;;;;11.80;4.50;;;;;;;3.30;52.04;100917.66;102523;279;105444;-61
2023/03/18 01:52:32;;;;;;;10.70;5.00;;;;;;;3.30;52.12;100916.80;102518;279;113907;-60
2023/03/18 01:55:16;;;;;;;8.10;4.40;;;;;;;3.27;52.07;100915.58;102403;279;92851;-63
2023/03/18 01:57:56;;;;;;;8.70;4.20;;;;;;;3.24;52.16;100916.71;102538;279;97206;-62
2023/03/18 02:00:40;;;;;;;11.00;5.00;;;;;;;3.25;52.06;100912.95;102512;279;120964;-61
2023/03/18 02:03:21;;;;;;;8.70;4.10;;;;;;;3.24;52.05;100910.89;102509;279;105713;-61
2023/03/18 02:05:59;;;;;;;8.10;4.40;;;;;;;3.24;51.98;100916.42;102546;279;114835;-58
2023/03/18 02:08:38;;;;;;;9.20;4.40;;;;;;;3.22;52.01;100916.18;102507;279;93988;-57
2023/03/18 02:11:15;;;;;;;8.00;4.50;;;;;;;3.22;52.02;100919.08;102542;279;98377;-61
2023/03/18 02:13:56;;;;;;;8.10;4.20;;;;;;;3.20;52.06;100917.23;102486;279;120959;-62
2023/03/18 02:16:35;;;;;;;7.90;4.60;;;;;;;3.18;52.03;100921.38;102408;279;105691;-61
2023/03/18 02:19:35;;;;;;;9.00;4.10;;;;;;;3.15;52.09;100916.81;102402;279;114329;-61
2023/03/18 02:22:22;;;;;;;10.30;4.10;;;;;;;3.14;52.18;100912.08;102429;279;92218;-62
2023/03/18 02:25:12;;;;;;;9.20;4.30;;;;;;;3.08;52.20;100915.05;102449;279;96727;-58
2023/03/18 02:27:58;;;;;;;9.20;4.30;;;;;;;3.05;52.27;100908.09;102472;279;121741;-58
2023/03/18 02:30:47;;;;;;;6.90;4.00;;;;;;;3.03;52.39;100912.80;102491;279;104156;-56
2023/03/18 02:33:33;;;;;;;7.90;4.40;;;;;;;3.04;52.44;100910.29;102430;279;113186;-56
2023/03/18 02:36:17;;;;;;;10.40;4.40;;;;;;;2.99;52.55;100909.02;102510;279;93616;-57
2023/03/18 02:38:59;;;;;;;10.30;4.60;;;;;;;2.96;52.53;100906.63;102543;279;97477;-56
2023/03/18 02:41:36;;;;;;;12.20;4.80;;;;;;;2.95;52.66;100908.48;102532;279;120758;-59
2023/03/18 02:44:16;;;;;;;11.00;4.90;;;;;;;3.00;52.64;100908.66;102572;279;105489;-60
2023/03/18 02:46:59;;;;;;;9.00;4.30;;;;;;;3.03;52.51;100910.52;102515;279;115196;-56
2023/03/18 02:49:40;;;;;;;9.30;4.50;;;;;;;3.06;52.55;100903.88;102496;279;92729;-56
2023/03/18 02:52:18;;;;;;;8.00;4.10;;;;;;;3.01;52.67;100908.53;102357;279;98114;-62
2023/03/18 02:55:03;;;;;;;10.40;3.80;;;;;;;2.99;52.66;100898.94;102538;279;119776;-57
2023/03/18 02:57:43;;;;;;;8.10;4.00;;;;;;;2.95;52.69;100897.66;102507;279;104490;-57
2023/03/18 03:00:20;;;;;;;10.10;4.30;;;;;;;2.97;52.81;100895.30;102503;279;113365;-57
2023/03/18 03:03:00;;;;;;;8.20;3.90;;;;;;;2.99;52.76;100892.14;102534;279;91773;-58
2023/03/18 03:05:48;;;;;;;9.20;3.90;;;;;;;2.97;52.78;100890.35;102482;279;97099;-62
2023/03/18 03:08:30;;;;;;;12.30;4.60;;;;;;;2.92;52.81;100886.52;102538;267;119588;-62
2023/03/18 03:11:07;;;;;;;8.60;4.10;;;;;;;2.89;52.84;100884.79;102536;279;104084;-60
2023/03/18 03:13:45;;;;;;;8.30;3.60;;;;;;;2.90;52.89;100884.71;102516;279;114208;-61
2023/03/18 03:16:23;;;;;;;7.90;3.60;;;;;;;2.87;52.88;100883.78;102517;279;93482;-61
2023/03/18 03:18:59;;;;;;;9.00;3.90;;;;;;;2.84;52.95;100884.94;102522;279;98134;-61
2023/03/18 03:21:39;;;;;;;7.30;3.40;;;;;;;2.88;52.94;100881.01;102544;279;120440;-57
2023/03/18 03:24:19;;;;;;;6.90;3.40;;;;;;;2.90;52.92;100882.02;102528;279;104513;-55
2023/03/18 03:27:00;;;;;;;7.20;3.50;;;;;;;2.88;53.03;100882.60;102519;279;114387;-58
2023/03/18 03:29:34;;;;;;;5.60;3.40;;;;;;;2.87;52.83;100884.06;102478;279;93205;-57
2023/03/18 03:32:10;;;;;;;7.30;3.60;;;;;;;2.90;52.84;100887.02;102564;279;95909;-60
2023/03/18 03:34:54;;;;;;;7.10;3.40;;;;;;;2.87;52.81;100877.85;102561;279;120574;-59
2023/03/18 03:37:34;;;;;;;7.30;3.70;;;;;;;2.88;52.71;100882.44;102544;279;105354;-61
2023/03/18 03:40:14;;;;;;;9.80;3.60;;;;;;;2.90;52.67;100879.74;102523;279;113196;-60
2023/03/18 03:42:50;;;;;;;6.20;3.30;;;;;;;2.93;52.60;100876.53;102518;279;94188;-59
2023/03/18 03:45:30;;;;;;;7.10;3.30;;;;;;;2.90;52.57;100881.71;102520;279;97434;-56
2023/03/18 03:48:08;;;;;;;8.50;3.40;;;;;;;2.90;52.58;100882.09;102406;279;120208;-56
2023/03/18 03:50:52;;;;;;;6.70;3.20;;;;;;;2.90;52.40;100886.70;102545;279;105296;-62
2023/03/18 03:53:30;;;;;;;7.20;3.60;;;;;;;2.90;52.45;100885.61;102530;279;114748;-62
2023/03/18 03:56:07;;;;;;;6.30;3.30;;;;;;;2.89;52.45;100880.94;102540;279;94157;-62
2023/03/18 03:58:44;;;;;;;6.80;3.10;;;;;;;2.85;52.42;100889.81;102562;279;97366;-62
2023/03/18 04:01:22;;;;;;;8.50;3.90;;;;;;;2.85;52.46;100894.73;102510;279;119882;-62
2023/03/18 04:04:01;;;;;;;4.80;2.80;;;;;;;2.84;52.44;100893.64;102514;279;105095;-62
2023/03/18 04:06:43;;;;;;;9.10;3.40;;;;;;;2.79;52.47;100894.39;102513;279;114255;-58
2023/03/18 04:09:27;;;;;;;7.50;3.10;;;;;;;2.81;52.45;100889.96;102462;279;93107;-57
2023/03/18 04:12:05;;;;;;;10.80;3.30;;;;;;;2.78;52.43;100889.80;102517;279;98437;-56
2023/03/18 04:14:44;;;;;;;8.20;3.30;;;;;;;2.79;52.43;100892.23;102537;279;120718;-56
2023/03/18 04:17:26;;;;;;;7.90;3.30;;;;;;;2.77;52.31;100892.42;102504;279;105397;-55
2023/03/18 04:20:04;;;;;;;7.20;3.50;;;;;;;2.76;52.32;100891.10;102506;279;114296;-60
2023/03/18 04:22:41;;;;;;;6.50;3.30;;;;;;;2.77;52.23;100893.00;102535;279;92155;-60
2023/03/18 04:25:21;;;;;;;6.50;3.10;;;;;;;2.74;52.42;100892.02;102498;279;96948;-57
2023/03/18 04:27:59;;;;;;;7.80;3.40;;;;;;;2.67;52.43;100899.17;102522;279;120787;-58
2023/03/18 04:30:39;;;;;;;7.70;2.90;;;;;;;2.65;52.47;100901.77;102555;279;105790;-59
2023/03/18 04:33:20;;;;;;;6.60;3.40;;;;;;;2.68;52.36;100905.33;102498;279;114245;-58
2023/03/18 04:35:55;;;;;;;8.20;3.40;;;;;;;2.69;52.38;100902.56;102522;279;92364;-56
2023/03/18 04:38:33;;;;;;;8.20;3.20;;;;;;;2.67;52.33;100904.86;102517;279;95809;-57
2023/03/18 04:41:08;;;;;;;8.80;3.40;;;;;;;2.65;52.36;100906.25;102510;279;120639;-58
2023/03/18 04:43:44;;;;;;;8.10;3.30;;;;;;;2.63;52.31;100906.61;102540;279;105119;-57
2023/03/18 04:46:28;;;;;;;7.50;3.10;;;;;;;2.62;52.35;100907.77;102534;279;114084;-61
2023/03/18 04:49:05;;;;;;;7.30;3.40;;;;;;;2.59;52.43;100905.36;102521;268;91522;-61
2023/03/18 04:51:45;;;;;;;6.30;3.30;;;;;;;2.60;52.39;100908.08;102523;279;97142;-57
2023/03/18 04:54:28;;;;;;;8.40;3.30;;;;;;;2.61;52.39;100909.63;102505;279;120418;-57
2023/03/18 04:57:07;;;;;;;7.00;3.10;;;;;;;2.61;52.34;100908.91;102515;279;104503;-60
2023/03/18 04:59:49;;;;;;;7.20;2.80;;;;;;;2.64;52.30;100904.71;102519;279;113575;-60
2023/03/18 05:02:25;;;;;;;10.90;3.40;;;;;;;2.66;52.27;100901.70;102506;279;94255;-57
2023/03/18 05:05:03;;;;;;;6.00;3.10;;;;;;;2.71;52.20;100893.28;102527;279;96599;-60
2023/03/18 05:07:43;;;;;;;6.90;3.30;;;;;;;2.74;52.24;100895.30;102538;279;122101;-59
2023/03/18 05:10:18;;;;;;;6.00;2.50;;;;;;;2.80;52.03;100896.11;102555;268;105991;-62
2023/03/18 05:12:56;;;;;;;7.00;3.40;;;;;;;2.84;51.92;100898.57;102536;279;112694;-62
2023/03/18 05:15:35;;;;;;;7.60;2.80;;;;;;;2.94;51.79;100899.20;102484;279;92316;-59
2023/03/18 05:18:24;;;;;;;6.90;3.20;;;;;;;3.01;51.85;100895.91;102510;279;98178;-59
2023/03/18 05:20:59;;;;;;;9.30;3.70;;;;;;;3.07;51.43;100896.13;102540;279;121122;-58
2023/03/18 05:23:39;;;;;;;7.70;2.90;;;;;;;3.15;51.56;100890.48;102531;279;106413;-57
2023/03/18 05:26:17;;;;;;;7.00;3.40;;;;;;;3.24;51.38;100900.38;102506;279;114852;-58
2023/03/18 05:29:03;;;;;;;6.40;3.00;;;;;;;3.33;51.00;100895.13;102494;279;93541;-58
2023/03/18 05:31:43;;;;;;;6.50;3.30;;;;;;;3.44;51.12;100893.79;102560;279;96745;-56
2023/03/18 05:34:21;;;;;;;5.60;2.80;;;;;;;3.55;50.93;100895.90;102527;279;119597;-56
2023/03/18 05:37:05;;;;;;;6.50;3.10;;;;;;;3.63;50.84;100896.06;102529;279;106072;-58
2023/03/18 05:39:45;;;;;;;7.60;3.00;;;;;;;3.70;50.76;100891.74;102471;279;114687;-57
2023/03/18 05:42:24;;;;;;;6.10;3.60;;;;;;;3.79;50.88;100891.66;102512;279;92958;-58
2023/03/18 05:45:04;;;;;;;6.40;2.90;;;;;;;3.89;50.35;100889.69;102524;279;97497;-60
2023/03/18 05:47:39;;;;;;;5.80;2.90;;;;;;;4.03;50.30;100886.60;102522;275;121245;-63
2023/03/18 05:50:14;;;;;;;6.90;3.30;;;;;;;4.22;49.77;100885.64;102540;279;103434;-62
2023/03/18 05:52:54;;;;;;;5.70;3.00;;;;;;;4.61;49.31;100882.96;102491;279;112321;-61
2023/03/18 05:55:34;;;;;;;7.30;2.80;;;;;;;6.04;49.26;100876.89;102508;279;93611;-62
2023/03/18 05:58:11;;;;;;;7.40;2.70;;;;;;;8.00;47.31;100878.47;102532;279;97524;-62
2023/03/18 06:00:50;;;;;;;7.30;3.10;;;;;;;10.15;45.95;100870.27;102481;279;121628;-56
2023/03/18 06:03:34;;;;;;;7.00;3.00;;;;;;;12.05;44.11;100868.01;102496;279;105567;-57
2023/03/18 06:06:11;;;;;;;5.80;3.40;;;;;;;13.01;41.85;100857.41;102525;279;114805;-60
2023/03/18 06:08:48;;;;;;;4.20;2.60;;;;;;;13.88;40.17;100854.75;102508;279;93842;-60
2023/03/18 06:11:28;;;;;;;5.80;3.00;;;;;;;14.43;38.01;100856.34;102533;279;97313;-63
2023/03/18 06:14:05;;;;;;;6.70;2.50;;;;;;;15.16;39.26;100851.70;102490;267;121780;-63
2023/03/18 06:16:45;;;;;;;4.50;3.00;;;;;;;16.02;38.20;100853.60;102576;279;106147;-57
2023/03/18 06:19:22;;;;;;;5.00;3.40;;;;;;;16.16;35.94;100856.42;102530;279;114388;-56
2023/03/18 06:21:59;;;;;;;6.50;3.20;;;;;;;14.86;35.10;100855.80;102527;279;94864;-63
2023/03/18 06:24:38;;;;;;;5.70;3.30;;;;;;;14.77;34.78;100858.44;102537;279;97777;-62
2023/03/18 06:27:21;;;;;;;5.70;3.30;;;;;;;13.28;34.28;100861.14;102506;279;119417;-61
2023/03/18 06:30:01;;;;;;;6.60;3.40;;;;;;;13.27;35.62;100860.95;102559;279;105345;-56
2023/03/18 06:32:43;;;;;;;4.50;3.00;;;;;;;13.17;35.40;100863.48;102473;279;113689;-56
2023/03/18 06:35:27;;;;;;;5.20;3.20;;;;;;;12.64;35.10;100863.65;102551;279;94402;-62
2023/03/18 06:38:03;;;;;;;6.20;3.20;;;;;;;11.70;34.37;100868.65;102544;279;97580;-62
2023/03/18 06:40:42;;;;;;;5.80;3.30;;;;;;;11.30;36.07;100865.06;102537;279;120898;-56
2023/03/18 06:43:20;;;;;;;5.70;3.00;;;;;;;11.33;35.82;100864.02;102528;279;104307;-56
2023/03/18 06:46:03;;;;;;;6.40;3.90;;;;;;;11.94;36.09;100869.54;102453;279;116288;-63
2023/03/18 06:48:44;;;;;;;;;;;;;;;12.11;35.79;100867.65;102508;279;94651;-62
2023/03/18 06:51:28;;;;;;;5.10;3.10;;;;;;;12.36;35.20;100871.16;102519;279;98085;-56
2023/03/18 06:54:05;;;;;;;4.80;2.60;;;;;;;12.22;34.33;100873.05;102544;279;120489;-56
2023/03/18 06:56:42;;;;;;;6.40;3.50;;;;;;;12.09;34.86;100876.51;102541;279;105197;-58
2023/03/18 06:59:28;;;;;;;8.40;2.70;;;;;;;11.99;34.63;100869.61;102496;279;114419;-56
2023/03/18 07:02:04;;;;;;;7.70;3.40;;;;;;;12.01;34.41;100873.60;102526;279;94425;-54
2023/03/18 07:04:42;;;;;;;9.70;3.30;;;;;;;11.68;34.32;100877.01;102499;279;96669;-56
2023/03/18 07:07:26;;;;;;;6.00;2.80;;;;;;;11.99;34.61;100873.81;102562;268;119968;-54
2023/03/18 07:10:08;;;;;;;6.70;3.50;;;;;;;12.37;34.10;100870.38;102506;279;104998;-58
2023/03/18 07:12:47;;;;;;;5.30;3.00;;;;;;;12.30;33.97;100878.60;102528;279;114800;-57
2023/03/18 07:15:26;;;;;;;8.80;3.20;;;;;;;11.85;33.75;100879.66;102543;279;94688;-61
2023/03/18 07:18:03;;;;;;;5.20;3.20;;;;;;;11.75;34.22;100882.38;102516;279;97531;-60
2023/03/18 07:20:45;;;;;;;7.70;3.30;;;;;;;12.21;34.33;100878.86;102547;279;120831;-60
2023/03/18 07:23:22;;;;;;;6.00;3.40;;;;;;;13.18;33.60;100876.73;102499;279;105864;-60
2023/03/18 07:26:02;;;;;;;5.60;3.20;;;;;;;13.63;32.42;100876.93;102540;279;113544;-61
2023/03/18 07:28:45;;;;;;;5.80;3.20;;;;;;;13.86;32.93;100880.42;102507;279;94487;-57
2023/03/18 07:31:22;;;;;;;6.00;3.70;;;;;;;14.19;32.72;100882.32;102557;279;96428;-57
2023/03/18 07:34:01;;;;;;;6.50;3.20;;;;;;;14.78;32.75;100880.48;102540;275;118610;-57
2023/03/18 07:36:42;;;;;;;6.30;2.70;;;;;;;15.45;33.26;100881.83;101971;279;632788;-59
2023/03/18 07:39:21;;;;;;;5.40;3.40;;;;;;;15.36;31.86;100878.84;102551;279;114960;-61
2023/03/18 07:41:58;;;;;;;6.60;3.20;;;;;;;15.66;31.27;100887.34;102525;279;94551;-58
2023/03/18 07:44:38;;;;;;;5.30;3.10;;;;;;;16.14;31.16;100881.67;102550;279;96652;-57
2023/03/18 07:47:23;;;;;;;5.90;3.40;;;;;;;16.28;29.34;100883.98;102543;279;120294;-62
2023/03/18 07:49:58;;;;;;;;;;;;;;;16.39;29.75;100882.11;102590;279;105642;-55
2023/03/18 07:52:38;;;;;;;6.50;3.50;;;;;;;16.99;29.85;100880.33;102501;279;115435;-56
2023/03/18 07:55:14;;;;;;;6.80;3.50;;;;;;;17.39;28.34;100875.35;102226;279;95253;-60
2023/03/18 07:57:49;;;;;;;7.60;3.60;;;;;;;17.33;27.58;100873.67;102517;279;96702;-60
2023/03/18 08:00:26;;;;;;;5.40;3.20;;;;;;;17.32;27.08;100875.15;102553;279;119013;-62
2023/03/18 08:03:02;;;;;;;7.30;3.90;;;;;;;17.36;26.75;100871.46;102527;279;106076;-63
2023/03/18 08:05:45;;;;;;;5.50;3.40;;;;;;;17.38;26.78;100872.08;102399;279;115424;-59
2023/03/18 08:08:20;;;;;;;7.00;3.90;;;;;;;17.64;27.52;100867.26;102487;279;93435;-57
2023/03/18 08:10:58;;;;;;;5.20;3.30;;;;;;;18.33;27.46;100869.36;102504;279;97606;-61
2023/03/18 08:13:38;;;;;;;6.10;3.10;;;;;;;18.24;26.08;100872.79;102492;279;121672;-61
2023/03/18 08:16:18;;;;;;;5.60;3.60;;;;;;;18.29;26.40;100865.41;102531;279;105270;-60
2023/03/18 08:19:01;;;;;;;5.30;3.00;;;;;;;18.21;26.40;100867.30;102460;279;113956;-60
2023/03/18 08:21:46;;;;;;;6.60;3.60;;;;;;;18.44;27.00;100861.98;102527;279;92942;-60
2023/03/18 08:24:31;;;;;;;5.80;3.70;;;;;;;18.92;26.00;100856.23;102505;279;97517;-61
2023/03/18 08:27:09;;;;;;;5.50;3.30;;;;;;;19.23;25.95;100857.12;102501;279;121007;-59
2023/03/18 08:29:50;;;;;;;5.30;3.20;;;;;;;19.53;26.32;100855.05;102517;279;103077;-58
2023/03/18 08:32:29;;;;;;;7.20;3.80;;;;;;;19.33;25.97;100853.33;102484;279;114799;-60
2023/03/18 08:35:08;;;;;;;5.50;3.30;;;;;;;19.42;25.89;100845.34;102574;279;93613;-57
2023/03/18 08:37:47;;;;;;;6.00;3.20;;;;;;;19.48;26.15;100845.64;102404;280;95618;-56
2023/03/18 08:40:33;;;;;;;7.50;3.50;;;;;;;19.51;26.43;100844.59;102422;279;121162;-58
2023/03/18 08:43:10;;;;;;;7.50;3.80;;;;;;;19.80;27.03;100839.97;102538;279;105921;-57
2023/03/18 08:45:52;;;;;;;5.80;3.50;;;;;;;20.11;25.97;100838.79;102507;279;113552;-60
2023/03/18 08:48:31;;;;;;;7.20;3.40;;;;;;;20.01;26.65;100843.55;102504;279;94855;-62
2023/03/18 08:51:10;;;;;;;3.90;3.20;;;;;;;20.16;25.97;100841.61;102548;279;96268;-57
2023/03/18 08:53:50;;;;;;;5.00;3.70;;;;;;;20.26;25.40;100839.54;102502;279;118988;-57
2023/03/18 08:56:28;;;;;;;5.60;3.20;;;;;;;20.30;25.36;100833.49;102511;279;103135;-62
2023/03/18 08:59:03;;;;;;;5.10;3.60;;;;;;;20.15;24.85;100831.98;102530;279;113821;-62
2023/03/18 09:01:41;;;;;;;5.10;3.40;;;;;;;19.57;25.11;100828.33;102536;279;93036;-56
2023/03/18 09:04:26;;;;;;;5.40;3.50;;;;;;;19.37;25.03;100829.38;102530;279;97492;-56
2023/03/18 09:07:06;;;;;;;5.80;3.50;;;;;;;18.90;24.14;100827.95;102516;279;121027;-56
2023/03/18 09:09:49;;;;;;;6.40;3.80;;;;;;;18.90;26.37;100827.98;102521;279;105666;-55
2023/03/18 09:12:24;;;;;;;5.20;3.10;;;;;;;19.23;25.46;100825.52;102518;279;115333;-57
2023/03/18 09:14:59;;;;;;;6.40;3.40;;;;;;;19.26;25.20;100820.44;102539;279;94326;-59
2023/03/18 09:17:39;;;;;;;7.00;3.60;;;;;;;19.61;25.72;100820.55;102529;279;97436;-61
2023/03/18 09:20:38;;;;;;;6.50;3.70;;;;;;;19.66;25.64;100822.05;102513;279;119108;-62
2023/03/18 09:23:17;;;;;;;6.50;3.70;;;;;;;19.62;25.42;100818.81;102506;279;104216;-62
2023/03/18 09:25:56;;;;;;;7.10;3.40;;;;;;;19.24;24.41;100819.77;102544;279;115054;-61
2023/03/18 09:28:37;;;;;;;5.40;3.10;;;;;;;18.60;25.10;100816.77;102497;279;94552;-61
2023/03/18 09:31:17;;;;;;;5.30;3.40;;;;;;;19.16;26.07;100813.17;102593;279;97246;-57
2023/03/18 09:33:53;;;;;;;5.60;3.20;;;;;;;19.25;25.36;100817.28;102498;279;120249;-57
2023/03/18 09:36:29;;;;;;;8.70;3.60;;;;;;;19.11;25.33;100811.11;102379;279;104647;-57
2023/03/18 09:39:11;;;;;;;6.10;3.30;;;;;;;18.65;24.45;100812.02;102484;279;115092;-57
2023/03/18 09:42:05;;;;;;;5.70;3.20;;;;;;;17.83;24.42;100804.43;102526;279;94168;-57
2023/03/18 09:44:45;;;;;;;4.60;3.00;;;;;;;17.61;25.29;100803.98;102554;268;97259;-59
2023/03/18 09:47:48;;;;;;;5.00;3.20;;;;;;;17.02;26.23;100801.91;102527;271;120925;-56
2023/03/18 09:50:37;;;;;;;5.60;3.00;;;;;;;16.73;25.77;100801.81;102539;279;103939;-62
2023/03/18 09:53:21;;;;;;;5.80;3.20;;;;;;;16.63;26.32;100796.18;102532;279;113148;-63
2023/03/18 09:56:00;;;;;;;5.50;3.10;;;;;;;16.17;26.78;100805.69;102505;279;94628;-64
2023/03/18 09:58:52;;;;;;;7.40;3.20;;;;;;;16.03;27.14;100805.60;102563;279;96937;-62
2023/03/18 10:01:37;;;;;;;6.70;3.70;;;;;;;15.42;27.26;100807.05;102519;279;120939;-62
2023/03/18 10:04:21;;;;;;;6.60;3.60;;;;;;;14.90;26.99;100808.42;102536;279;104330;-57
2023/03/18 10:07:05;;;;;;;7.00;3.90;;;;;;;14.62;27.89;100808.67;102494;279;113817;-56
2023/03/18 10:09:52;;;;;;;5.60;3.40;;;;;;;14.48;28.47;100797.12;102459;279;95032;-57
2023/03/18 10:12:34;;;;;;;5.90;3.50;;;;;;;14.42;28.57;100800.31;102537;279;98350;-60
2023/03/18 10:15:38;;;;;;;4.40;3.10;;;;;;;14.21;28.46;100797.66;102508;279;119887;-62
2023/03/18 10:18:26;;;;;;;6.10;3.50;;;;;;;14.14;28.70;100791.14;102487;279;106026;-62
2023/03/18 10:21:18;;;;;;;6.40;3.40;;;;;;;14.15;29.14;100786.14;102550;279;114635;-57
2023/03/18 10:24:07;;;;;;;4.00;2.50;;;;;;;14.00;28.87;100782.16;102491;279;94531;-58
2023/03/18 10:26:49;;;;;;;4.80;2.90;;;;;;;13.89;28.21;100780.02;102545;279;96691;-56
2023/03/18 10:29:39;;;;;;;6.80;3.50;;;;;;;13.74;28.60;100781.10;102544;279;119805;-57
2023/03/18 10:32:32;;;;;;;8.00;3.00;;;;;;;13.80;28.78;100778.08;102520;279;103758;-58
2023/03/18 10:35:21;;;;;;;6.60;3.40;;;;;;;13.89;28.90;100773.67;102517;279;113518;-57
2023/03/18 10:38:10;;;;;;;6.30;3.80;;;;;;;13.96;29.17;100773.70;102508;279;95324;-56
2023/03/18 10:40:46;;;;;;;6.80;4.10;;;;;;;13.83;29.42;100775.55;102582;279;97266;-57
2023/03/18 10:43:29;;;;;;;6.60;3.30;;;;;;;13.88;29.91;100772.62;102509;279;120905;-57
2023/03/18 10:46:14;;;;;;;4.80;3.20;;;;;;;14.00;30.30;100774.59;102505;279;104177;-56
2023/03/18 10:48:54;;;;;;;7.10;3.40;;;;;;;13.82;30.04;100771.83;102497;279;113989;-57
2023/03/18 10:51:44;;;;;;;7.50;3.70;;;;;;;13.73;30.30;100766.60;102526;279;94315;-61
2023/03/18 10:54:27;;;;;;;4.70;3.00;;;;;;;13.68;29.81;100766.77;102508;279;97369;-61
2023/03/18 10:57:05;;;;;;;5.90;3.40;;;;;;;13.71;29.93;100764.41;102536;279;121144;-62
2023/03/18 10:59:49;;;;;;;5.80;3.00;;;;;;;13.63;30.02;100757.30;102522;268;105974;-62
2023/03/18 11:02:31;;;;;;;4.80;3.10;;;;;;;13.67;29.72;100757.41;102496;279;114994;-61
2023/03/18 11:05:25;;;;;;;7.20;3.30;;;;;;;13.54;29.53;100755.14;102527;279;94670;-58
2023/03/18 11:08:07;;;;;;;5.70;3.00;;;;;;;13.42;29.61;100755.52;102508;279;97904;-58
2023/03/18 11:10:52;;;;;;;7.50;2.90;;;;;;;13.23;29.84;100749.74;102587;279;121125;-60
2023/03/18 11:13:28;;;;;;;5.10;3.20;;;;;;;13.17;30.05;100749.17;102494;279;105398;-60
2023/03/18 11:16:24;;;;;;;7.00;3.50;;;;;;;13.15;30.38;100752.37;102554;279;114190;-58
2023/03/18 11:19:27;;;;;;;6.60;3.50;;;;;;;13.15;30.39;100744.56;102528;279;94274;-57
2023/03/18 11:22:20;;;;;;;6.40;3.30;;;;;;;13.21;30.77;100748.11;102524;279;97919;-57
2023/03/18 11:25:17;;;;;;;5.30;3.50;;;;;;;13.18;30.89;100743.99;102548;279;120329;-57
2023/03/18 11:27:57;;;;;;;7.30;3.60;;;;;;;13.14;31.13;100738.88;102548;279;105485;-59
2023/03/18 11:30:50;;;;;;;6.90;3.80;;;;;;;13.04;31.19;100728.42;102503;279;113821;-56
2023/03/18 11:33:30;;;;;;;8.50;3.80;;;;;;;13.16;31.45;100726.59;102500;279;95203;-56
2023/03/18 11:36:14;;;;;;;7.90;4.10;;;;;;;13.25;30.98;100731.18;102527;278;97897;-58
2023/03/18 11:39:03;;;;;;;7.40;4.30;;;;;;;13.25;31.12;100719.96;102523;279;120549;-58
2023/03/18 11:41:44;;;;;;;6.70;3.50;;;;;;;13.29;30.72;100717.90;102555;279;106061;-62
2023/03/18 11:44:28;;;;;;;6.70;3.50;;;;;;;13.33;30.64;100720.30;102509;279;112360;-61
2023/03/18 11:47:17;;;;;;;5.40;3.20;;;;;;;13.32;30.72;100715.96;102510;279;95058;-59
2023/03/18 11:49:56;;;;;;;7.50;3.30;;;;;;;13.24;30.75;100713.70;102504;279;97331;-57
2023/03/18 11:52:44;;;;;;;6.30;3.30;;;;;;;13.24;30.93;100708.52;102502;279;120489;-55
2023/03/18 11:55:40;;;;;;;4.40;3.00;;;;;;;13.15;30.56;100712.08;102526;279;105676;-58
2023/03/18 11:58:53;;;;;;;4.30;3.50;;;;;;;12.97;30.81;100709.39;102528;279;114425;-61
2023/03/18 12:01:43;;;;;;;7.20;3.50;;;;;;;13.05;30.81;100704.31;102479;279;95050;-63
2023/03/18 12:05:00;;;;;;;4.60;2.80;;;;;;;12.99;30.65;100709.23;102539;279;97462;-61
2023/03/18 12:07:57;;;;;;;5.30;3.20;;;;;;;13.02;30.93;100707.20;102497;279;120849;-63
2023/03/18 12:10:40;;;;;;;5.90;3.30;;;;;;;12.87;30.86;100708.52;102531;279;105330;-65
2023/03/18 12:13:35;;;;;;;6.30;2.90;;;;;;;12.82;31.24;100701.05;102523;279;114715;-64
2023/03/18 12:16:25;;;;;;;5.80;3.40;;;;;;;12.82;31.01;100700.04;102498;279;93712;-62
2023/03/18 12:19:16;;;;;;;5.70;3.10;;;;;;;12.80;31.38;100699.73;102517;279;98031;-63
2023/03/18 12:22:16;;;;;;;6.60;3.80;;;;;;;12.85;31.62;100697.98;102532;267;121102;-57
2023/03/18 12:25:29;;;;;;;6.70;3.70;;;;;;;12.80;31.06;100697.20;102521;279;106159;-59
2023/03/18 12:28:18;;;;;;;6.10;3.20;;;;;;;12.72;30.88;100695.20;102517;279;114056;-61
2023/03/18 12:31:29;;;;;;;6.60;3.30;;;;;;;12.72;31.50;100691.16;102489;279;95484;-58